createdAt,value
2023-03-17T00:01:51.324Z,3.22
2023-03-17T00:04:22.035Z,3.60
2023-03-17T00:06:50.064Z,3.38
2023-03-17T00:09:19.907Z,2.88
2023-03-17T00:11:48.943Z,3.50
2023-03-17T00:14:16.948Z,4.43
2023-03-17T00:16:48.440Z,4.40
2023-03-17T00:19:17.962Z,3.30
2023-03-17T00:21:47.954Z,3.47
2023-03-17T00:24:16.054Z,3.90
2023-03-17T00:26:44.272Z,3.13
2023-03-17T00:29:13.338Z,3.70
2023-03-17T00:31:41.439Z,3.88
2023-03-17T00:34:13.142Z,4.10
2023-03-17T00:36:50.885Z,4.13
2023-03-17T00:39:19.423Z,4.10
2023-03-17T00:44:14.592Z,3.90
2023-03-17T00:46:42.887Z,3.72
2023-03-17T00:51:44.745Z,3.70
2023-03-17T00:54:15.534Z,4.70
2023-03-17T00:56:44.854Z,5.13
2023-03-17T00:59:20.504Z,4.60
2023-03-17T01:01:49.056Z,4.10
2023-03-17T01:04:17.207Z,4.93
2023-03-17T01:06:45.289Z,4.00
2023-03-17T01:09:16.683Z,4.30
2023-03-17T01:11:44.979Z,3.60
2023-03-17T01:14:13.957Z,4.10
2023-03-17T01:16:42.080Z,4.50
2023-03-17T01:19:12.058Z,4.40
2023-03-17T01:21:40.679Z,3.90
2023-03-17T01:24:09.575Z,4.23
2023-03-17T01:26:40.188Z,3.70
2023-03-17T01:29:08.276Z,4.18
2023-03-17T01:31:36.539Z,4.07
2023-03-17T01:34:06.219Z,4.18
2023-03-17T01:36:34.384Z,4.32
2023-03-17T01:39:03.407Z,5.20
2023-03-17T01:41:34.630Z,3.90
2023-03-17T01:44:04.088Z,4.05
2023-03-17T01:46:34.057Z,3.70
2023-03-17T01:49:18.248Z,3.45
2023-03-17T01:52:02.804Z,4.07
2023-03-17T01:54:36.689Z,4.50
2023-03-17T01:57:11.527Z,4.53
2023-03-17T01:59:46.856Z,4.20
2023-03-17T02:02:20.100Z,4.10
2023-03-17T02:04:48.107Z,4.40
2023-03-17T02:07:18.631Z,4.10
2023-03-17T02:09:46.915Z,4.80
2023-03-17T02:12:15.438Z,4.40
2023-03-17T02:14:45.209Z,4.80
2023-03-17T02:17:13.460Z,5.17
2023-03-17T02:19:42.001Z,4.95
2023-03-17T02:22:11.866Z,4.25
2023-03-17T02:24:43.260Z,3.90
2023-03-17T02:27:15.936Z,3.80
2023-03-17T02:29:46.316Z,4.07
2023-03-17T02:32:15.451Z,4.10
2023-03-17T02:34:43.409Z,4.72
2023-03-17T02:37:12.902Z,4.50
2023-03-17T02:39:40.925Z,4.30
2023-03-17T02:42:09.408Z,3.80
2023-03-17T02:44:37.645Z,3.70
2023-03-17T02:47:06.503Z,4.38
2023-03-17T02:49:35.601Z,4.10
2023-03-17T02:52:03.661Z,4.40
2023-03-17T02:54:33.157Z,4.60
2023-03-17T02:57:01.698Z,4.68
2023-03-17T02:59:29.799Z,4.38
2023-03-17T03:01:57.776Z,3.83
2023-03-17T03:04:26.315Z,4.07
2023-03-17T03:06:55.162Z,3.83
2023-03-17T03:09:24.253Z,3.65
2023-03-17T03:11:53.676Z,4.28
2023-03-17T03:14:21.715Z,4.60
2023-03-17T03:16:49.830Z,4.30
2023-03-17T03:19:18.496Z,4.30
2023-03-17T03:21:46.723Z,3.80
2023-03-17T03:24:14.760Z,4.07
2023-03-17T03:26:42.784Z,4.20
2023-03-17T03:29:12.235Z,3.80
2023-03-17T03:31:40.608Z,4.43
2023-03-17T03:34:08.554Z,4.97
2023-03-17T03:36:37.029Z,4.50
2023-03-17T03:39:05.067Z,4.28
2023-03-17T03:41:33.346Z,4.00
2023-03-17T03:44:01.474Z,4.20
2023-03-17T03:46:30.834Z,4.15
2023-03-17T03:48:58.934Z,4.15
2023-03-17T03:51:27.023Z,4.38
2023-03-17T03:53:55.048Z,4.50
2023-03-17T03:56:23.001Z,4.77
2023-03-17T03:58:51.325Z,4.40
2023-03-17T04:01:19.578Z,3.60
2023-03-17T04:03:48.896Z,3.83
2023-03-17T04:06:17.285Z,4.10
2023-03-17T04:08:45.778Z,4.10
2023-03-17T04:11:13.779Z,4.10
2023-03-17T04:13:41.794Z,4.82
2023-03-17T04:16:10.171Z,4.55
2023-03-17T04:18:38.233Z,4.38
2023-03-17T04:21:08.344Z,3.90
2023-03-17T04:23:36.584Z,4.20
2023-03-17T04:26:05.140Z,4.00
2023-03-17T04:28:33.187Z,4.05
2023-03-17T04:31:01.497Z,3.95
2023-03-17T04:33:29.943Z,4.78
2023-03-17T04:35:58.610Z,4.60
2023-03-17T04:38:28.074Z,4.63
2023-03-17T04:40:56.108Z,4.00
2023-03-17T04:43:24.459Z,3.65
2023-03-17T04:45:52.610Z,4.20
2023-03-17T04:48:21.080Z,4.00
2023-03-17T04:50:49.097Z,4.28
2023-03-17T04:53:17.746Z,4.50
2023-03-17T04:55:47.499Z,4.35
2023-03-17T04:58:29.600Z,4.18
2023-03-17T05:00:58.768Z,4.50
2023-03-17T05:03:28.579Z,3.60
2023-03-17T05:05:57.393Z,3.38
2023-03-17T05:08:26.363Z,3.97
2023-03-17T05:10:56.161Z,3.97
2023-03-17T05:13:24.436Z,4.40
2023-03-17T05:15:54.165Z,4.40
2023-03-17T05:18:26.807Z,4.47
2023-03-17T05:20:55.288Z,4.20
2023-03-17T05:23:23.984Z,3.70
2023-03-17T05:25:52.587Z,4.10
2023-03-17T05:28:22.132Z,3.50
2023-03-17T05:30:50.791Z,3.80
2023-03-17T05:33:18.981Z,4.50
2023-03-17T05:35:47.522Z,4.83
2023-03-17T05:38:16.457Z,3.80
2023-03-17T05:40:44.684Z,4.05
2023-03-17T05:43:12.897Z,3.80
2023-03-17T05:45:42.353Z,3.80
2023-03-17T05:48:12.293Z,3.63
2023-03-17T05:50:41.600Z,4.10
2023-03-17T05:53:09.784Z,4.57
2023-03-17T05:55:37.817Z,4.53
2023-03-17T05:58:06.606Z,3.92
2023-03-17T06:00:35.691Z,4.00
2023-03-17T06:03:05.474Z,3.80
2023-03-17T06:05:33.476Z,3.40
2023-03-17T06:08:01.993Z,3.80
2023-03-17T06:10:30.436Z,3.50
2023-03-17T06:12:58.927Z,3.67
2023-03-17T06:15:27.685Z,4.20
2023-03-17T06:17:55.779Z,4.10
2023-03-17T06:20:25.215Z,3.80
2023-03-17T06:23:03.769Z,3.47
2023-03-17T06:25:32.859Z,3.40
2023-03-17T06:28:02.285Z,3.20
2023-03-17T06:30:30.670Z,3.78
2023-03-17T06:32:58.696Z,4.30
2023-03-17T06:35:28.528Z,4.13
2023-03-17T06:37:56.768Z,3.60
2023-03-17T06:40:24.954Z,3.10
2023-03-17T06:42:53.316Z,3.40
2023-03-17T06:45:21.271Z,3.80
2023-03-17T06:47:49.218Z,3.35
2023-03-17T06:50:17.200Z,3.50
2023-03-17T06:52:47.019Z,4.40
2023-03-17T06:55:15.108Z,4.00
2023-03-17T06:57:43.357Z,3.67
2023-03-17T07:00:13.997Z,3.92
2023-03-17T07:02:42.349Z,3.50
2023-03-17T07:05:10.889Z,3.50
2023-03-17T07:07:38.928Z,3.63
2023-03-17T07:10:10.357Z,3.40
2023-03-17T07:12:38.547Z,4.00
2023-03-17T07:15:07.611Z,4.25
2023-03-17T07:17:35.634Z,4.38
2023-03-17T07:20:03.811Z,3.60
2023-03-17T07:22:31.810Z,3.35
2023-03-17T07:24:59.968Z,4.10
2023-03-17T07:27:29.406Z,3.17
2023-03-17T07:29:57.540Z,3.15
2023-03-17T07:32:25.749Z,3.67
2023-03-17T07:34:53.761Z,4.05
2023-03-17T07:37:22.131Z,3.70
2023-03-17T07:39:50.157Z,3.03
2023-03-17T07:42:18.331Z,3.50
2023-03-17T07:44:47.692Z,3.60
2023-03-17T07:47:16.317Z,3.50
2023-03-17T07:49:44.595Z,3.40
2023-03-17T07:52:12.902Z,3.55
2023-03-17T07:54:43.195Z,4.30
2023-03-17T07:57:12.088Z,4.18
2023-03-17T07:59:41.591Z,3.80
2023-03-17T08:02:16.009Z,3.50
2023-03-17T08:04:44.258Z,3.67
2023-03-17T08:07:12.815Z,3.40
2023-03-17T08:09:40.910Z,3.03
2023-03-17T08:12:09.904Z,3.80
2023-03-17T08:14:37.977Z,4.40
2023-03-17T08:17:06.347Z,4.70
2023-03-17T08:19:35.768Z,4.32
2023-03-17T08:22:03.693Z,3.92
2023-03-17T08:24:32.584Z,3.80
2023-03-17T08:27:00.960Z,3.70
2023-03-17T08:29:29.930Z,4.20
2023-03-17T08:31:57.904Z,4.15
2023-03-17T08:34:26.286Z,3.97
2023-03-17T08:36:55.684Z,5.00
2023-03-17T08:39:24.452Z,4.78
2023-03-17T08:41:52.884Z,4.90
2023-03-17T08:44:21.834Z,4.60
2023-03-17T08:46:50.170Z,4.67
2023-03-17T08:49:18.184Z,4.65
2023-03-17T08:51:46.480Z,4.05
2023-03-17T08:54:16.328Z,4.28
2023-03-17T08:56:44.279Z,4.38
2023-03-17T08:59:12.508Z,4.45
2023-03-17T09:01:42.052Z,4.50
2023-03-17T09:04:11.070Z,4.25
2023-03-17T09:06:44.112Z,3.83
2023-03-17T09:09:18.346Z,4.20
2023-03-17T09:11:46.550Z,4.20
2023-03-17T09:14:15.343Z,3.80
2023-03-17T09:16:43.300Z,4.13
2023-03-17T09:19:11.423Z,3.53
2023-03-17T09:21:39.365Z,4.50
2023-03-17T09:24:07.542Z,4.60
2023-03-17T09:26:37.089Z,5.00
2023-03-17T09:29:05.232Z,4.70
2023-03-17T09:31:33.398Z,4.40
2023-03-17T09:34:01.375Z,4.10
2023-03-17T09:36:29.326Z,4.70
2023-03-17T09:38:57.336Z,4.60
2023-03-17T09:41:43.255Z,4.50
2023-03-17T09:44:20.814Z,4.97
2023-03-17T09:46:58.350Z,5.43
2023-03-17T09:49:36.727Z,5.03
2023-03-17T09:52:05.063Z,5.03
2023-03-17T09:54:38.072Z,4.72
2023-03-17T09:57:14.406Z,4.87
2023-03-17T09:59:46.946Z,5.57
2023-03-17T10:02:21.486Z,5.35
2023-03-17T10:04:49.615Z,5.00
2023-03-17T10:07:23.346Z,5.97
2023-03-17T10:10:02.921Z,5.32
2023-03-17T10:12:46.089Z,6.30
2023-03-17T10:15:22.372Z,6.55
2023-03-17T10:17:53.452Z,6.28
2023-03-17T10:20:28.063Z,5.38
2023-03-17T10:22:59.053Z,5.20
2023-03-17T10:25:30.684Z,5.80
2023-03-17T10:28:03.406Z,5.60
2023-03-17T10:30:34.402Z,5.60
2023-03-17T10:33:06.982Z,4.95
2023-03-17T10:35:36.453Z,5.43
2023-03-17T10:38:16.944Z,5.32
2023-03-17T10:40:48.359Z,5.90
2023-03-17T10:43:22.802Z,6.50
2023-03-17T10:46:00.757Z,6.45
2023-03-17T10:48:29.750Z,5.80
2023-03-17T10:50:59.658Z,5.50
2023-03-17T10:53:31.304Z,6.13
2023-03-17T10:56:01.010Z,6.53
2023-03-17T10:58:38.933Z,6.63
2023-03-17T11:01:09.958Z,7.38
2023-03-17T11:03:41.068Z,6.28
2023-03-17T11:06:12.289Z,6.35
2023-03-17T11:08:42.768Z,6.60
2023-03-17T11:11:24.904Z,7.40
2023-03-17T11:14:02.979Z,6.80
2023-03-17T11:16:33.635Z,7.00
2023-03-17T11:19:03.513Z,6.50
2023-03-17T11:21:34.668Z,5.90
2023-03-17T11:24:09.257Z,5.85
2023-03-17T11:26:50.240Z,5.97
2023-03-17T11:29:39.948Z,5.50
2023-03-17T11:32:21.850Z,6.30
2023-03-17T11:35:02.410Z,6.22
2023-03-17T11:37:44.734Z,5.80
2023-03-17T11:40:20.635Z,6.60
2023-03-17T11:42:57.100Z,6.80
2023-03-17T11:45:29.578Z,7.40
2023-03-17T11:48:28.823Z,7.57
2023-03-17T11:51:02.951Z,6.43
2023-03-17T11:53:53.066Z,7.03
2023-03-17T11:56:23.053Z,6.80
2023-03-17T11:58:54.899Z,6.68
2023-03-17T12:01:29.290Z,5.60
2023-03-17T12:04:08.964Z,5.60
2023-03-17T12:06:44.031Z,6.70
2023-03-17T12:09:22.583Z,6.37
2023-03-17T12:11:51.880Z,6.35
2023-03-17T12:14:28.216Z,7.00
2023-03-17T12:17:04.967Z,7.70
2023-03-17T12:19:40.722Z,7.10
2023-03-17T12:22:14.515Z,6.40
2023-03-17T12:24:49.466Z,6.22
2023-03-17T12:27:24.095Z,7.55
2023-03-17T12:29:58.203Z,6.75
2023-03-17T12:32:37.014Z,6.80
2023-03-17T12:35:23.957Z,7.22
2023-03-17T12:37:51.923Z,6.22
2023-03-17T12:40:25.891Z,7.20
2023-03-17T12:43:03.720Z,6.57
2023-03-17T12:45:49.355Z,6.30
2023-03-17T12:48:43.924Z,6.90
2023-03-17T12:51:45.883Z,7.30
2023-03-17T12:54:20.110Z,6.80
2023-03-17T12:56:50.088Z,7.20
2023-03-17T12:59:21.237Z,7.15
2023-03-17T13:01:58.515Z,7.30
2023-03-17T13:04:32.644Z,6.80
2023-03-17T13:07:07.296Z,7.45
2023-03-17T13:09:45.792Z,6.88
2023-03-17T13:12:37.435Z,7.50
2023-03-17T13:15:23.669Z,7.40
2023-03-17T13:17:52.285Z,6.75
2023-03-17T13:20:36.882Z,6.85
2023-03-17T13:23:14.852Z,6.82
2023-03-17T13:25:53.384Z,7.60
2023-03-17T13:28:27.097Z,8.57
2023-03-17T13:31:11.390Z,8.20
2023-03-17T13:33:45.709Z,8.10
2023-03-17T13:36:34.555Z,7.43
2023-03-17T13:39:51.060Z,7.25
2023-03-17T13:42:38.655Z,7.97
2023-03-17T13:45:25.032Z,7.17
2023-03-17T13:47:53.489Z,7.82
2023-03-17T13:50:25.402Z,7.35
2023-03-17T13:52:58.653Z,7.00
2023-03-17T13:55:36.872Z,7.15
2023-03-17T13:58:26.159Z,7.60
2023-03-17T14:01:02.565Z,6.97
2023-03-17T14:03:36.598Z,6.45
2023-03-17T14:06:08.023Z,7.30
2023-03-17T14:08:39.945Z,7.47
2023-03-17T14:11:18.023Z,7.65
2023-03-17T14:13:53.448Z,8.07
2023-03-17T14:16:27.504Z,7.90
2023-03-17T14:19:00.046Z,8.38
2023-03-17T14:21:32.260Z,6.80
2023-03-17T14:24:04.254Z,6.90
2023-03-17T14:26:33.292Z,5.75
2023-03-17T14:29:02.801Z,6.10
2023-03-17T14:31:31.617Z,6.22
2023-03-17T14:34:00.945Z,6.30
2023-03-17T14:36:30.040Z,6.35
2023-03-17T14:38:58.296Z,6.10
2023-03-17T14:41:30.731Z,5.85
2023-03-17T14:44:01.550Z,6.45
2023-03-17T14:46:33.147Z,6.10
2023-03-17T14:49:02.952Z,6.30
2023-03-17T14:51:35.940Z,6.80
2023-03-17T14:54:06.861Z,7.50
2023-03-17T14:56:38.396Z,7.90
2023-03-17T14:59:08.827Z,8.38
2023-03-17T15:01:39.722Z,7.55
2023-03-17T15:04:11.984Z,7.95
2023-03-17T15:06:50.286Z,7.95
2023-03-17T15:09:21.180Z,7.20
2023-03-17T15:11:50.522Z,7.43
2023-03-17T15:14:22.580Z,7.70
2023-03-17T15:16:52.978Z,7.18
2023-03-17T15:19:27.013Z,8.30
2023-03-17T15:22:00.272Z,7.15
2023-03-17T15:24:39.211Z,6.30
2023-03-17T15:27:15.464Z,6.80
2023-03-17T15:29:43.680Z,7.00
2023-03-17T15:32:15.266Z,7.00
2023-03-17T15:34:43.524Z,7.30
2023-03-17T15:37:19.801Z,7.00
2023-03-17T15:39:48.764Z,6.80
2023-03-17T15:42:19.837Z,7.22
2023-03-17T15:44:47.897Z,7.93
2023-03-17T15:47:17.429Z,8.02
2023-03-17T15:49:46.279Z,8.55
2023-03-17T15:52:17.289Z,8.60
2023-03-17T15:54:46.217Z,7.20
2023-03-17T15:57:14.291Z,7.20
2023-03-17T15:59:43.680Z,7.15
2023-03-17T16:02:27.542Z,6.90
2023-03-17T16:04:56.264Z,6.75
2023-03-17T16:07:24.881Z,6.53
2023-03-17T16:09:53.031Z,6.95
2023-03-17T16:12:21.245Z,7.65
2023-03-17T16:14:50.623Z,7.50
